Freistadt, Austria
Current Conditions -  °F | °C
As of 4:50 AM on Saturday 22 Nov 2014 (Local Time) from LOWL Reporting Station
Broken Clouds Broken Clouds  
Wind Chill: 34°   Ceiling: 1500
Heat Index: 39°   Visibility: 6mi
Dew Point: 34°   Wind: 7mph
Humidity: 81%   Direction: 80°E
Pressure: 30.21"   Gusts: NA
Location:  48.52°N, 14.5°E
Report Text: LOWL 220250Z 08006KT 060V120 9999 FEW014 BKN015 04/01 Q1023 NOSIG
Loading
Personal Weather Stations






























Interactive Weather Map New forecast layout! Learn more

10-Day Weather Forecast

Advertisements
Track Severe Weather on mobile